Yanji, China
Current Conditions -  °F | °C
As of 8:30 AM on Tuesday 23 Dec 2014 (Local Time) from UHWW Reporting Station
Overcast Overcast  
Wind Chill: -12°   Ceiling: 10000
Heat Index: -2°   Visibility: 6mi
Dew Point: -11°   Wind: 4mph
Humidity: 66%   Direction: NA
Pressure: 30.18"   Gusts: NA
Location:  42.88°N, 129.52°E
Report Text: UHWW 230030Z VRB02MPS 9999 OVC100 M19/M24 Q1022 NOSIG RMKQFE765/1020 25CLRD60
Loading
Personal Weather Stations






























Interactive Weather Map New forecast layout! Learn more

10-Day Weather Forecast

Advertisements
Track Severe Weather on mobile